Time;durP1;ratioP1;P1;durP2;ratioP2;P2;SDS_P1;SDS_P2;PMS_P1;PMS_P2;Temp;Humidity;BMP_temperature;BMP_pressure;BME280_temperature;BME280_humidity;BME280_pressure;Samples;Min_cycle;Max_cycle;Signal;HPM_P1;HPM_P2
2023/05/29 00:12:56;;;;;;;;;;;;;;;11.83;51.40;100412.03;30997320;28;96817;-68
2023/05/29 00:27:56;;;;;;;;;;;;;;;11.57;52.22;100403.47;30997627;28;97273;-68
2023/05/29 00:42:56;;;;;;;;;;;;;;;11.32;52.71;100390.19;30994419;28;97298;-68
2023/05/29 00:57:56;;;;;;;;;;;;;;;10.93;53.49;100397.06;30995090;28;97160;-68
2023/05/29 01:13:04;;;;;;;;;;;;;;;10.70;53.96;100394.22;30992954;28;97125;-68
2023/05/29 01:28:07;;;;;;;;;;;;;;;10.44;55.05;100402.38;30992446;28;96954;-68
2023/05/29 01:43:08;;;;;;;;;;;;;;;10.15;55.42;100398.28;30990665;28;97107;-66
2023/05/29 01:58:08;;;;;;;;;;;;;;;10.00;56.39;100379.44;30989158;28;97367;-66
2023/05/29 02:13:08;;;;;;;;;;;;;;;9.82;56.99;100380.38;30987539;28;96816;-66
2023/05/29 02:28:09;;;;;;;;;;;;;;;9.66;57.66;100382.97;30985861;28;96741;-66
2023/05/29 02:43:12;;;;;;;;;;;;;;;9.49;58.10;100387.41;30984064;28;96681;-66
2023/05/29 02:58:12;;;;;;;;;;;;;;;9.40;58.83;100367.06;30982997;28;96606;-65
2023/05/29 03:13:13;;;;;;;;;;;;;;;9.41;59.31;100377.53;30980199;28;96732;-66
2023/05/29 03:28:13;;;;;;;;;;;;;;;9.54;59.97;100392.22;30980668;28;97286;-67
2023/05/29 03:43:13;;;;;;;;;;;;;;;9.79;60.43;100407.31;30978520;28;96678;-66
2023/05/29 03:58:14;;;;;;;;;;;;;;;10.20;60.14;100413.75;30975625;28;97282;-67
2023/05/29 04:13:14;;;;;;;;;;;;;;;10.50;60.10;100410.53;30974076;28;96699;-66
2023/05/29 04:28:15;;;;;;;;;;;;;;;11.10;59.76;100424.56;30974553;28;96580;-67
2023/05/29 04:43:16;;;;;;;;;;;;;;;11.75;60.10;100440.59;30973604;28;96672;-66
2023/05/29 04:58:16;;;;;;;;;;;;;;;12.45;58.96;100441.63;30989765;28;97383;-65
2023/05/29 05:13:16;;;;;;;;;;;;;;;13.19;57.76;100444.59;30990953;28;98141;-66
2023/05/29 05:28:17;;;;;;;;;;;;;;;14.02;56.00;100451.78;30988274;28;97209;-66
2023/05/29 05:43:17;;;;;;;;;;;;;;;14.86;54.01;100455.84;30988067;28;96830;-66
2023/05/29 05:58:17;;;;;;;;;;;;;;;15.65;51.83;100457.47;30986318;28;96725;-66
2023/05/29 06:13:18;;;;;;;;;;;;;;;16.58;49.81;100467.03;30985293;28;96744;-66
2023/05/29 06:28:18;;;;;;;;;;;;;;;17.58;47.69;100468.97;30983476;28;97549;-65
2023/05/29 06:43:18;;;;;;;;;;;;;;;18.56;45.42;100473.41;30983165;28;96796;-67
2023/05/29 06:58:18;;;;;;;;;;;;;;;19.66;43.14;100475.91;30978987;28;96819;-66
2023/05/29 07:13:19;;;;;;;;;;;;;;;20.61;40.86;100488.09;30976910;28;97041;-66
2023/05/29 07:28:19;;;;;;;;;;;;;;;21.90;38.44;100486.66;30977096;28;97441;-67
2023/05/29 07:43:19;;;;;;;;;;;;;;;22.98;36.13;100499.63;30977394;28;96772;-67
2023/05/29 07:58:20;;;;;;;;;;;;;;;23.73;32.97;100499.47;30976145;28;97922;-67
2023/05/29 08:13:20;;;;;;;;;;;;;;;24.71;31.17;100513.50;30975026;28;96803;-67
2023/05/29 08:28:21;;;;;;;;;;;;;;;25.46;29.34;100499.97;30986559;28;96794;-66
2023/05/29 08:43:22;;;;;;;;;;;;;;;26.20;27.31;100495.47;30993401;28;96763;-67
2023/05/29 08:58:23;;;;;;;;;;;;;;;26.77;24.99;100496.47;30993214;28;97195;-67
2023/05/29 09:13:23;;;;;;;;;;;;;;;27.22;23.89;100498.72;30990284;28;97319;-66
2023/05/29 09:28:28;;;;;;;;;;;;;;;27.60;23.01;100504.69;30989510;28;96908;-66
2023/05/29 09:43:30;;;;;;;;;;;;;;;27.90;23.30;100509.28;30987794;28;96758;-66
2023/05/29 09:58:32;;;;;;;;;;;;;;;28.48;23.25;100499.72;30986971;28;97055;-66
2023/05/29 10:13:36;;;;;;;;;;;;;;;29.05;22.43;100494.69;30984820;28;96915;-66
2023/05/29 10:28:39;;;;;;;;;;;;;;;29.97;22.25;100481.19;30984664;28;97687;-66
2023/05/29 10:43:42;;;;;;;;;;;;;;;30.51;21.49;100476.34;30983486;28;96812;-67
2023/05/29 10:58:42;;;;;;;;;;;;;;;30.32;20.99;100465.31;30981430;28;96787;-66
2023/05/29 11:13:51;;;;;;;;;;;;;;;30.81;20.56;100455.00;30979355;28;96783;-66
2023/05/29 11:28:53;;;;;;;;;;;;;;;31.01;19.74;100449.16;30977850;28;96734;-66
2023/05/29 11:43:57;;;;;;;;;;;;;;;30.88;19.90;100455.47;30977142;28;98322;-67
2023/05/29 11:58:59;;;;;;;;;;;;;;;31.65;19.13;100450.53;30981417;28;97634;-66
2023/05/29 12:14:00;;;;;;;;;;;;;;;30.98;19.55;100448.97;30997210;28;97436;-66
2023/05/29 12:29:02;;;;;;;;;;;;;;;30.51;20.17;100424.13;30995570;28;97492;-66
2023/05/29 12:44:03;;;;;;;;;;;;;;;29.96;20.45;100403.47;30994136;28;97119;-66
2023/05/29 12:59:04;;;;;;;;;;;;;;;29.95;20.08;100410.09;30990752;28;97398;-66
2023/05/29 13:14:04;;;;;;;;;;;;;;;30.25;20.28;100394.28;30987393;28;97341;-66
2023/05/29 13:29:04;;;;;;;;;;;;;;;29.98;20.14;100379.28;30988638;28;98381;-66
2023/05/29 13:44:05;;;;;;;;;;;;;;;29.42;20.60;100377.25;30988591;28;96615;-65
2023/05/29 13:59:06;;;;;;;;;;;;;;;29.48;20.79;100362.34;30986999;28;96731;-66
2023/05/29 14:14:06;;;;;;;;;;;;;;;28.88;20.59;100352.53;30986149;28;98544;-66
2023/05/29 14:29:06;;;;;;;;;;;;;;;28.23;21.59;100347.28;30982120;28;97492;-66
2023/05/29 14:44:07;;;;;;;;;;;;;;;28.36;21.64;100352.97;30981979;28;96690;-67
2023/05/29 14:59:07;;;;;;;;;;;;;;;28.08;22.15;100342.75;30980636;28;96856;-66
2023/05/29 15:14:07;;;;;;;;;;;;;;;27.82;22.65;100345.63;30980988;28;96748;-66
2023/05/29 15:29:07;;;;;;;;;;;;;;;27.74;23.16;100346.22;30979136;28;96993;-68
2023/05/29 15:44:08;;;;;;;;;;;;;;;27.50;23.67;100342.22;30976471;28;97543;-66
2023/05/29 15:59:08;;;;;;;;;;;;;;;27.12;23.89;100340.91;30976213;28;97813;-67
2023/05/29 16:14:08;;;;;;;;;;;;;;;26.74;24.78;100349.47;30974316;28;97364;-65
2023/05/29 16:29:08;;;;;;;;;;;;;;;26.50;24.87;100346.44;30972164;28;97566;-66
2023/05/29 16:44:08;;;;;;;;;;;;;;;25.45;26.77;100348.34;30973006;28;97686;-66
2023/05/29 16:59:09;;;;;;;;;;;;;;;24.54;28.36;100358.34;30991197;28;97588;-66
2023/05/29 17:14:09;;;;;;;;;;;;;;;23.97;29.73;100363.22;30989860;28;96777;-66
2023/05/29 17:29:10;;;;;;;;;;;;;;;23.59;30.65;100362.19;30989752;28;97424;-65
2023/05/29 17:44:10;;;;;;;;;;;;;;;23.14;31.52;100366.75;30988292;28;97830;-64
2023/05/29 17:59:11;;;;;;;;;;;;;;;22.59;32.74;100374.56;30986775;28;98116;-69
2023/05/29 18:14:11;;;;;;;;;;;;;;;21.88;34.07;100383.00;30983638;28;97303;-63
2023/05/29 18:29:11;;;;;;;;;;;;;;;21.05;35.36;100388.53;30983677;28;96683;-63
2023/05/29 18:44:11;;;;;;;;;;;;;;;20.33;36.89;100415.66;30972000;28;96858;-67
2023/05/29 18:59:13;;;;;;;;;;;;;;;19.75;38.00;100425.91;30970851;28;97426;-65
2023/05/29 19:14:14;;;;;;;;;;;;;;;19.20;39.04;100427.47;30858747;28;97495;-66
2023/05/29 19:29:17;;;;;;;;;;;;;;;18.71;39.74;100427.25;30856772;28;96721;-66
2023/05/29 19:44:17;;;;;;;;;;;;;;;18.34;40.83;100442.38;30848635;28;96776;-65
2023/05/29 19:59:18;;;;;;;;;;;;;;;18.12;41.40;100458.88;30852135;28;97061;-68
2023/05/29 20:14:18;;;;;;;;;;;;;;;18.20;41.29;100468.59;30842823;28;97162;-70
2023/05/29 20:29:18;;;;;;;;;;;;;;;18.22;41.24;100478.13;30870391;28;96737;-69
2023/05/29 20:44:19;;;;;;;;;;;;;;;18.13;40.98;100474.00;30873300;28;96759;-68
2023/05/29 20:59:20;;;;;;;;;;;;;;;17.98;40.68;100481.53;30960135;28;96701;-68
2023/05/29 21:14:20;;;;;;;;;;;;;;;17.88;40.45;100481.94;30993499;28;97374;-69
2023/05/29 21:29:20;;;;;;;;;;;;;;;17.68;40.80;100484.69;30990003;28;96801;-69
2023/05/29 21:44:21;;;;;;;;;;;;;;;17.58;40.99;100488.63;30990596;28;96919;-69
2023/05/29 21:59:22;;;;;;;;;;;;;;;17.50;41.36;100482.63;30988501;28;97012;-68
2023/05/29 22:14:22;;;;;;;;;;;;;;;17.33;41.71;100499.22;30987609;28;97226;-67
2023/05/29 22:29:23;;;;;;;;;;;;;;;17.23;42.02;100502.31;30986341;28;97561;-67
2023/05/29 22:44:23;;;;;;;;;;;;;;;16.93;42.40;100504.56;30985269;28;96700;-68
2023/05/29 22:59:23;;;;;;;;;;;;;;;16.61;43.03;100500.72;30983990;28;96797;-68
2023/05/29 23:14:24;;;;;;;;;;;;;;;16.30;43.69;100494.00;30982281;28;97585;-66
2023/05/29 23:29:25;;;;;;;;;;;;;;;16.02;44.66;100501.13;30981610;28;96698;-66
2023/05/29 23:44:25;;;;;;;;;;;;;;;15.55;45.20;100497.25;30978751;28;97530;-66
2023/05/29 23:59:25;;;;;;;;;;;;;;;15.16;46.05;100503.97;30991596;28;96927;-66
